Corinth, Vermont
Current Conditions -  °F | °C
As of 3:51 AM on Monday 22 Dec 2014 (Local Time) from KMPV Reporting Station
Overcast Overcast  
Wind Chill: -5°   Ceiling: 2900
Heat Index: -5°   Visibility: 7mi
Dew Point: -6°   Wind: 0mph
Humidity: 92%   Direction: NA
Pressure: 30.36"   Gusts: NA
Location:  44.02°N, 72.3°W
Report Text: KMPV 220851Z AUTO 00000KT 7SM OVC029 M05/M06 A3036 RMK AO2 SLP301 T10501061 58001 $
Loading
Personal Weather Stations






























Interactive Weather Map New forecast layout! Learn more

10-Day Weather Forecast

Advertisements
Track Severe Weather on mobile